Wednesday, October 18, 2017, 3:40 AM EDT
Back to Local

KSWF, Newburgh / Stewart

Location: New Windsor, NY, United States Lat: 41.5
Local Time: 3:40 AM EDT ( 7:40 GMT) Lon: -74.1
Time Zone: US/Eastern Elev: 492 ft

Show me the last for .
Show Decoded

2017-10-18 02:45 METAR KSWF 180645Z 24007KT 10SM SKC 07/03 A3026 =
2017-10-18 01:45 METAR KSWF 180545Z 28007KT 10SM SKC 06/03 A3027 =
2017-10-18 00:45 METAR KSWF 180445Z 24005KT 10SM SKC 08/02 A3027 =
2017-10-17 23:45 METAR KSWF 180345Z 25004KT 10SM SKC 08/03 A3027 =
2017-10-17 22:45 METAR KSWF 180245Z 25004KT 10SM SKC 08/03 A3027 =
2017-10-17 21:45 METAR KSWF 180145Z 25004KT 10SM SKC 09/03 A3027 =
2017-10-17 20:45 METAR KSWF 180045Z 240045KT 10SM SKC 10/02 A3026 =
2017-10-17 19:45 METAR KSWF 172345Z 24005KT 10SM SKC 10/03 A3025 =
2017-10-17 18:45 METAR KSWF 172245Z 24006KT 10SM SKC 13/01 A3024 =
2017-10-17 17:45 METAR KSWF 172145Z 23006KT 10SM SKC 14/01 A3023 =
2017-10-17 16:45 METAR KSWF 172045Z 23008KT 20SM SKC 15/01 A3023 =
2017-10-17 15:45 METAR KSWF 171945Z 21006KT 20SM SKC 14/02 A3025 =
2017-10-17 14:45 METAR KSWF 171845Z 24006KT 20SM SKC 14/01 A3027 =
2017-10-17 13:45 METAR KSWF 171745Z 00000KT 20SM SKC 12/00 A3029 =
2017-10-17 12:45 METAR KSWF 171645Z 00000KT 20SM SKC 11/01 A3031 =
2017-10-17 11:45 METAR KSWF 171545Z 00000KT 20SM SKC 09/01 A3034 =
2017-10-17 10:45 METAR KSWF 171445Z 00000KT 20SM SKC 09/01 A3034 =
2017-10-17 09:45 METAR KSWF 171345Z 00000KT 20SM SKC 07/03 A3036 =
2017-10-17 08:45 METAR KSWF 171245Z 00000KT 20SM SKC 03/02 A3035 =
2017-10-17 07:45 METAR KSWF 171145Z 00000KT 10SM SKC 01/01 A3034 =
2017-10-17 06:45 METAR KSWF 171045Z 00000KT 10SM SKC 01/01 A3032 =
2017-10-17 05:45 METAR KSWF 170945Z 25004KT 10SM SKC 01/01 A3030 =
2017-10-17 04:45 METAR KSWF 170845Z 00000KT 10SM SKC 02/01 A3027 =
2017-10-17 03:45 METAR KSWF 170745Z 00000KT 10SM SKC 03/01 A3027 =

Support USWX by starting your Amazon purchase here.